sensor_id;sensor_type;location;lat;lon;timestamp;pressure;altitude;pressure_sealevel;temperature;humidity
54600;BME280;40500;51.084;16.958;2023-05-27T00:00:08;101310.34;;;10.60;100.00
54600;BME280;40500;51.084;16.958;2023-05-27T00:03:03;101308.25;;;10.56;100.00
54600;BME280;40500;51.084;16.958;2023-05-27T00:05:41;101308.27;;;10.51;100.00
54600;BME280;40500;51.084;16.958;2023-05-27T00:08:30;101306.16;;;10.45;100.00
54600;BME280;40500;51.084;16.958;2023-05-27T00:11:22;101304.59;;;10.39;100.00
54600;BME280;40500;51.084;16.958;2023-05-27T00:14:14;101303.38;;;10.33;100.00
54600;BME280;40500;51.084;16.958;2023-05-27T00:17:06;101309.13;;;10.27;100.00
54600;BME280;40500;51.084;16.958;2023-05-27T00:20:03;101307.89;;;10.21;100.00
54600;BME280;40500;51.084;16.958;2023-05-27T00:22:55;101305.44;;;10.15;100.00
54600;BME280;40500;51.084;16.958;2023-05-27T00:25:48;101306.84;;;10.10;100.00
54600;BME280;40500;51.084;16.958;2023-05-27T00:28:19;101308.23;;;10.05;100.00
54600;BME280;40500;51.084;16.958;2023-05-27T00:30:51;101310.68;;;10.02;100.00
54600;BME280;40500;51.084;16.958;2023-05-27T00:33:41;101309.79;;;9.94;100.00
54600;BME280;40500;51.084;16.958;2023-05-27T00:36:34;101307.52;;;9.85;100.00
54600;BME280;40500;51.084;16.958;2023-05-27T00:39:23;101313.27;;;9.81;100.00
54600;BME280;40500;51.084;16.958;2023-05-27T00:42:16;101315.02;;;9.76;100.00
54600;BME280;40500;51.084;16.958;2023-05-27T00:44:54;101313.60;;;9.71;100.00
54600;BME280;40500;51.084;16.958;2023-05-27T00:50:51;101312.35;;;9.59;100.00
54600;BME280;40500;51.084;16.958;2023-05-27T00:53:45;101321.60;;;9.54;100.00
54600;BME280;40500;51.084;16.958;2023-05-27T00:56:40;101316.34;;;9.47;100.00
54600;BME280;40500;51.084;16.958;2023-05-27T00:59:29;101320.16;;;9.43;100.00
54600;BME280;40500;51.084;16.958;2023-05-27T01:02:22;101322.60;;;9.39;100.00
54600;BME280;40500;51.084;16.958;2023-05-27T01:05:12;101320.85;;;9.37;100.00
54600;BME280;40500;51.084;16.958;2023-05-27T01:08:03;101320.48;;;9.35;100.00
54600;BME280;40500;51.084;16.958;2023-05-27T01:10:42;101316.64;;;9.32;100.00
54600;BME280;40500;51.084;16.958;2023-05-27T01:13:46;101317.14;;;9.28;100.00
54600;BME280;40500;51.084;16.958;2023-05-27T01:17:01;101312.40;;;9.24;100.00
54600;BME280;40500;51.084;16.958;2023-05-27T01:19:55;101313.63;;;9.21;100.00
54600;BME280;40500;51.084;16.958;2023-05-27T01:22:52;101313.95;;;9.18;100.00
54600;BME280;40500;51.084;16.958;2023-05-27T01:25:45;101315.34;;;9.16;100.00
54600;BME280;40500;51.084;16.958;2023-05-27T01:28:36;101318.98;;;9.12;100.00
54600;BME280;40500;51.084;16.958;2023-05-27T01:31:31;101324.20;;;9.04;100.00
54600;BME280;40500;51.084;16.958;2023-05-27T01:34:36;101324.33;;;8.97;100.00
54600;BME280;40500;51.084;16.958;2023-05-27T01:37:33;101328.85;;;8.93;100.00
54600;BME280;40500;51.084;16.958;2023-05-27T01:40:28;101329.71;;;8.90;100.00
54600;BME280;40500;51.084;16.958;2023-05-27T01:43:22;101336.14;;;8.85;100.00
54600;BME280;40500;51.084;16.958;2023-05-27T01:46:13;101333.83;;;8.78;100.00
54600;BME280;40500;51.084;16.958;2023-05-27T01:49:03;101334.47;;;8.70;100.00
54600;BME280;40500;51.084;16.958;2023-05-27T01:51:51;101333.22;;;8.65;100.00
54600;BME280;40500;51.084;16.958;2023-05-27T01:54:49;101329.88;;;8.61;100.00
54600;BME280;40500;51.084;16.958;2023-05-27T01:57:40;101326.33;;;8.55;100.00
54600;BME280;40500;51.084;16.958;2023-05-27T02:00:29;101328.02;;;8.49;100.00
54600;BME280;40500;51.084;16.958;2023-05-27T02:02:59;101326.59;;;8.43;100.00
54600;BME280;40500;51.084;16.958;2023-05-27T02:05:29;101324.96;;;8.40;100.00
54600;BME280;40500;51.084;16.958;2023-05-27T02:08:19;101326.15;;;8.37;100.00
54600;BME280;40500;51.084;16.958;2023-05-27T02:11:10;101326.64;;;8.32;100.00
54600;BME280;40500;51.084;16.958;2023-05-27T02:14:00;101324.30;;;8.22;100.00
54600;BME280;40500;51.084;16.958;2023-05-27T02:16:50;101324.05;;;8.16;100.00
54600;BME280;40500;51.084;16.958;2023-05-27T02:19:39;101322.83;;;8.15;100.00
54600;BME280;40500;51.084;16.958;2023-05-27T02:22:28;101321.25;;;8.14;100.00
54600;BME280;40500;51.084;16.958;2023-05-27T02:25:18;101322.80;;;8.11;100.00
54600;BME280;40500;51.084;16.958;2023-05-27T02:28:10;101332.36;;;8.06;100.00
54600;BME280;40500;51.084;16.958;2023-05-27T02:31:04;101335.96;;;8.01;100.00
54600;BME280;40500;51.084;16.958;2023-05-27T02:33:57;101334.01;;;7.98;100.00
54600;BME280;40500;51.084;16.958;2023-05-27T02:36:55;101335.36;;;7.93;100.00
54600;BME280;40500;51.084;16.958;2023-05-27T02:39:44;101335.34;;;7.89;100.00
54600;BME280;40500;51.084;16.958;2023-05-27T02:42:34;101343.16;;;7.88;100.00
54600;BME280;40500;51.084;16.958;2023-05-27T02:48:29;101350.61;;;7.83;100.00
54600;BME280;40500;51.084;16.958;2023-05-27T02:51:22;101351.10;;;7.79;100.00
54600;BME280;40500;51.084;16.958;2023-05-27T02:54:10;101345.52;;;7.78;100.00
54600;BME280;40500;51.084;16.958;2023-05-27T02:56:59;101343.92;;;7.78;100.00
54600;BME280;40500;51.084;16.958;2023-05-27T02:59:31;101342.70;;;7.77;100.00
54600;BME280;40500;51.084;16.958;2023-05-27T03:02:00;101343.91;;;7.77;100.00
54600;BME280;40500;51.084;16.958;2023-05-27T03:04:50;101345.30;;;7.76;100.00
54600;BME280;40500;51.084;16.958;2023-05-27T03:07:40;101349.64;;;7.74;100.00
54600;BME280;40500;51.084;16.958;2023-05-27T03:10:28;101357.31;;;7.74;100.00
54600;BME280;40500;51.084;16.958;2023-05-27T03:13:00;101356.60;;;7.73;100.00
54600;BME280;40500;51.084;16.958;2023-05-27T03:15:59;101359.38;;;7.70;100.00
54600;BME280;40500;51.084;16.958;2023-05-27T03:18:51;101365.94;;;7.67;100.00
54600;BME280;40500;51.084;16.958;2023-05-27T03:21:43;101365.24;;;7.66;100.00
54600;BME280;40500;51.084;16.958;2023-05-27T03:24:34;101368.39;;;7.67;100.00
54600;BME280;40500;51.084;16.958;2023-05-27T03:27:23;101365.56;;;7.64;100.00
54600;BME280;40500;51.084;16.958;2023-05-27T03:30:17;101373.05;;;7.62;100.00
54600;BME280;40500;51.084;16.958;2023-05-27T03:33:08;101369.73;;;7.62;100.00
54600;BME280;40500;51.084;16.958;2023-05-27T03:35:57;101374.98;;;7.64;100.00
54600;BME280;40500;51.084;16.958;2023-05-27T03:38:50;101375.00;;;7.66;100.00
54600;BME280;40500;51.084;16.958;2023-05-27T03:41:43;101372.90;;;7.65;100.00
54600;BME280;40500;51.084;16.958;2023-05-27T03:44:45;101374.77;;;7.61;100.00
54600;BME280;40500;51.084;16.958;2023-05-27T03:47:36;101374.80;;;7.64;100.00
54600;BME280;40500;51.084;16.958;2023-05-27T03:50:07;101383.86;;;7.64;100.00
54600;BME280;40500;51.084;16.958;2023-05-27T03:52:57;101381.13;;;7.67;100.00
54600;BME280;40500;51.084;16.958;2023-05-27T03:55:53;101382.05;;;7.71;100.00
54600;BME280;40500;51.084;16.958;2023-05-27T03:58:41;101387.00;;;7.78;100.00
54600;BME280;40500;51.084;16.958;2023-05-27T04:01:34;101390.41;;;7.85;100.00
54600;BME280;40500;51.084;16.958;2023-05-27T04:04:26;101387.66;;;7.91;100.00
54600;BME280;40500;51.084;16.958;2023-05-27T04:07:16;101397.35;;;8.00;100.00
54600;BME280;40500;51.084;16.958;2023-05-27T04:10:08;101404.93;;;8.07;100.00
54600;BME280;40500;51.084;16.958;2023-05-27T04:12:58;101404.09;;;8.11;100.00
54600;BME280;40500;51.084;16.958;2023-05-27T04:16:03;101411.47;;;8.15;100.00
54600;BME280;40500;51.084;16.958;2023-05-27T04:18:34;101411.49;;;8.18;100.00
54600;BME280;40500;51.084;16.958;2023-05-27T04:21:26;101409.30;;;8.25;100.00
54600;BME280;40500;51.084;16.958;2023-05-27T04:24:18;101406.77;;;8.35;100.00
54600;BME280;40500;51.084;16.958;2023-05-27T04:27:07;101402.04;;;8.47;100.00
54600;BME280;40500;51.084;16.958;2023-05-27T04:29:57;101404.23;;;8.59;100.00
54600;BME280;40500;51.084;16.958;2023-05-27T04:33:02;101406.42;;;8.71;100.00
54600;BME280;40500;51.084;16.958;2023-05-27T04:35:56;101401.64;;;8.86;100.00
54600;BME280;40500;51.084;16.958;2023-05-27T04:38:46;101400.95;;;9.45;100.00
54600;BME280;40500;51.084;16.958;2023-05-27T04:41:37;101398.48;;;9.86;100.00
54600;BME280;40500;51.084;16.958;2023-05-27T04:44:43;101398.10;;;10.70;100.00
54600;BME280;40500;51.084;16.958;2023-05-27T04:47:38;101399.84;;;10.67;100.00
54600;BME280;40500;51.084;16.958;2023-05-27T04:50:28;101400.54;;;10.40;100.00
54600;BME280;40500;51.084;16.958;2023-05-27T04:53:23;101399.98;;;10.29;100.00
54600;BME280;40500;51.084;16.958;2023-05-27T04:56:25;101401.02;;;10.25;100.00
54600;BME280;40500;51.084;16.958;2023-05-27T04:59:17;101401.20;;;10.24;100.00
54600;BME280;40500;51.084;16.958;2023-05-27T05:02:26;101398.75;;;10.25;100.00
54600;BME280;40500;51.084;16.958;2023-05-27T05:05:33;101405.58;;;10.27;100.00
54600;BME280;40500;51.084;16.958;2023-05-27T05:08:29;101407.02;;;10.31;100.00
54600;BME280;40500;51.084;16.958;2023-05-27T05:11:21;101400.19;;;10.38;100.00
54600;BME280;40500;51.084;16.958;2023-05-27T05:14:13;101401.95;;;10.48;100.00
54600;BME280;40500;51.084;16.958;2023-05-27T05:17:13;101401.95;;;10.66;100.00
54600;BME280;40500;51.084;16.958;2023-05-27T05:20:04;101402.11;;;10.93;100.00
54600;BME280;40500;51.084;16.958;2023-05-27T05:23:00;101404.55;;;11.02;100.00
54600;BME280;40500;51.084;16.958;2023-05-27T05:26:05;101402.77;;;11.03;100.00
54600;BME280;40500;51.084;16.958;2023-05-27T05:28:57;101400.16;;;11.06;100.00
54600;BME280;40500;51.084;16.958;2023-05-27T05:31:46;101400.15;;;11.09;100.00
54600;BME280;40500;51.084;16.958;2023-05-27T05:34:51;101401.70;;;11.20;100.00
54600;BME280;40500;51.084;16.958;2023-05-27T05:37:42;101404.49;;;11.25;100.00
54600;BME280;40500;51.084;16.958;2023-05-27T05:40:31;101408.51;;;11.33;100.00
54600;BME280;40500;51.084;16.958;2023-05-27T05:43:31;101407.61;;;11.39;100.00
54600;BME280;40500;51.084;16.958;2023-05-27T05:46:21;101413.02;;;11.47;100.00
54600;BME280;40500;51.084;16.958;2023-05-27T05:49:13;101410.54;;;11.57;100.00
54600;BME280;40500;51.084;16.958;2023-05-27T05:52:08;101414.36;;;11.66;100.00
54600;BME280;40500;51.084;16.958;2023-05-27T05:55:01;101410.29;;;11.76;100.00
54600;BME280;40500;51.084;16.958;2023-05-27T05:57:54;101412.52;;;11.86;100.00
54600;BME280;40500;51.084;16.958;2023-05-27T06:00:43;101413.00;;;11.99;100.00
54600;BME280;40500;51.084;16.958;2023-05-27T06:03:37;101413.64;;;12.12;100.00
54600;BME280;40500;51.084;16.958;2023-05-27T06:06:27;101410.76;;;12.22;100.00
54600;BME280;40500;51.084;16.958;2023-05-27T06:09:22;101414.23;;;12.26;100.00
54600;BME280;40500;51.084;16.958;2023-05-27T06:11:51;101414.20;;;12.34;100.00
54600;BME280;40500;51.084;16.958;2023-05-27T06:14:20;101417.64;;;12.43;100.00
54600;BME280;40500;51.084;16.958;2023-05-27T06:16:53;101420.01;;;12.54;100.00
54600;BME280;40500;51.084;16.958;2023-05-27T06:19:21;101420.30;;;12.62;100.00
54600;BME280;40500;51.084;16.958;2023-05-27T06:21:49;101419.02;;;12.70;100.00
54600;BME280;40500;51.084;16.958;2023-05-27T06:24:44;101417.54;;;12.78;100.00
54600;BME280;40500;51.084;16.958;2023-05-27T06:27:17;101418.52;;;12.85;100.00
54600;BME280;40500;51.084;16.958;2023-05-27T06:29:46;101416.36;;;12.93;100.00
54600;BME280;40500;51.084;16.958;2023-05-27T06:32:17;101412.40;;;13.01;100.00
54600;BME280;40500;51.084;16.958;2023-05-27T06:34:45;101417.63;;;13.06;100.00
54600;BME280;40500;51.084;16.958;2023-05-27T06:37:13;101419.00;;;13.09;100.00
54600;BME280;40500;51.084;16.958;2023-05-27T06:39:42;101414.20;;;13.15;100.00
54600;BME280;40500;51.084;16.958;2023-05-27T06:42:10;101410.60;;;13.23;100.00
54600;BME280;40500;51.084;16.958;2023-05-27T06:44:50;101412.10;;;13.33;100.00
54600;BME280;40500;51.084;16.958;2023-05-27T06:47:22;101413.05;;;13.42;100.00
54600;BME280;40500;51.084;16.958;2023-05-27T06:49:51;101419.33;;;13.49;100.00
54600;BME280;40500;51.084;16.958;2023-05-27T06:52:19;101412.98;;;13.50;100.00
54600;BME280;40500;51.084;16.958;2023-05-27T06:55:00;101416.64;;;13.53;100.00
54600;BME280;40500;51.084;16.958;2023-05-27T06:57:46;101417.08;;;13.60;100.00
54600;BME280;40500;51.084;16.958;2023-05-27T07:00:20;101412.99;;;13.62;100.00
54600;BME280;40500;51.084;16.958;2023-05-27T07:03:09;101411.86;;;13.70;100.00
54600;BME280;40500;51.084;16.958;2023-05-27T07:05:39;101411.59;;;13.76;100.00
54600;BME280;40500;51.084;16.958;2023-05-27T07:08:07;101409.63;;;13.78;100.00
54600;BME280;40500;51.084;16.958;2023-05-27T07:10:38;101406.86;;;13.87;100.00
54600;BME280;40500;51.084;16.958;2023-05-27T07:13:07;101409.74;;;13.96;100.00
54600;BME280;40500;51.084;16.958;2023-05-27T07:15:43;101406.79;;;14.05;100.00
54600;BME280;40500;51.084;16.958;2023-05-27T07:18:11;101408.81;;;14.13;100.00
54600;BME280;40500;51.084;16.958;2023-05-27T07:20:39;101402.02;;;14.18;100.00
54600;BME280;40500;51.084;16.958;2023-05-27T07:23:09;101408.08;;;14.27;100.00
54600;BME280;40500;51.084;16.958;2023-05-27T07:25:38;101402.48;;;14.35;100.00
54600;BME280;40500;51.084;16.958;2023-05-27T07:28:06;101400.46;;;14.40;100.00
54600;BME280;40500;51.084;16.958;2023-05-27T07:30:44;101399.16;;;14.44;100.00
54600;BME280;40500;51.084;16.958;2023-05-27T07:33:13;101391.48;;;14.51;100.00
54600;BME280;40500;51.084;16.958;2023-05-27T07:35:43;101400.36;;;14.59;100.00
54600;BME280;40500;51.084;16.958;2023-05-27T07:38:11;101392.23;;;14.60;100.00
54600;BME280;40500;51.084;16.958;2023-05-27T07:40:38;101393.80;;;14.61;100.00
54600;BME280;40500;51.084;16.958;2023-05-27T07:43:08;101389.83;;;14.69;100.00
54600;BME280;40500;51.084;16.958;2023-05-27T07:45:38;101382.17;;;14.61;100.00
54600;BME280;40500;51.084;16.958;2023-05-27T07:48:06;101387.30;;;14.60;100.00
54600;BME280;40500;51.084;16.958;2023-05-27T07:50:36;101382.57;;;14.69;100.00
54600;BME280;40500;51.084;16.958;2023-05-27T07:53:09;101380.14;;;14.77;100.00
54600;BME280;40500;51.084;16.958;2023-05-27T07:55:38;101381.63;;;14.83;100.00
54600;BME280;40500;51.084;16.958;2023-05-27T07:58:07;101380.52;;;14.85;100.00
54600;BME280;40500;51.084;16.958;2023-05-27T08:01:01;101382.51;;;14.92;100.00
54600;BME280;40500;51.084;16.958;2023-05-27T08:03:33;101376.47;;;14.94;100.00
54600;BME280;40500;51.084;16.958;2023-05-27T08:06:35;101370.75;;;14.99;100.00
54600;BME280;40500;51.084;16.958;2023-05-27T08:09:27;101371.55;;;15.03;100.00
54600;BME280;40500;51.084;16.958;2023-05-27T08:12:00;101371.08;;;15.10;100.00
54600;BME280;40500;51.084;16.958;2023-05-27T08:14:48;101369.11;;;15.11;100.00
54600;BME280;40500;51.084;16.958;2023-05-27T08:17:37;101367.70;;;15.11;100.00
54600;BME280;40500;51.084;16.958;2023-05-27T08:20:18;101365.02;;;15.12;100.00
54600;BME280;40500;51.084;16.958;2023-05-27T08:23:12;101365.52;;;15.14;100.00
54600;BME280;40500;51.084;16.958;2023-05-27T08:25:51;101367.55;;;15.18;100.00
54600;BME280;40500;51.084;16.958;2023-05-27T08:28:31;101364.67;;;15.21;100.00
54600;BME280;40500;51.084;16.958;2023-05-27T08:31:26;101365.90;;;15.22;100.00
54600;BME280;40500;51.084;16.958;2023-05-27T08:33:57;101359.69;;;15.23;100.00
54600;BME280;40500;51.084;16.958;2023-05-27T08:36:25;101355.34;;;15.29;100.00
54600;BME280;40500;51.084;16.958;2023-05-27T08:38:55;101354.66;;;15.37;100.00
54600;BME280;40500;51.084;16.958;2023-05-27T08:41:31;101349.95;;;15.42;100.00
54600;BME280;40500;51.084;16.958;2023-05-27T08:44:04;101349.55;;;15.36;100.00
54600;BME280;40500;51.084;16.958;2023-05-27T08:46:56;101353.09;;;15.36;100.00
54600;BME280;40500;51.084;16.958;2023-05-27T08:49:25;101350.05;;;15.37;100.00
54600;BME280;40500;51.084;16.958;2023-05-27T08:51:55;101350.45;;;15.44;100.00
54600;BME280;40500;51.084;16.958;2023-05-27T08:54:29;101348.13;;;15.46;100.00
54600;BME280;40500;51.084;16.958;2023-05-27T08:57:00;101348.88;;;15.52;100.00
54600;BME280;40500;51.084;16.958;2023-05-27T08:59:31;101348.41;;;15.57;100.00
54600;BME280;40500;51.084;16.958;2023-05-27T09:02:12;101345.13;;;15.62;100.00
54600;BME280;40500;51.084;16.958;2023-05-27T09:04:41;101347.37;;;15.64;100.00
54600;BME280;40500;51.084;16.958;2023-05-27T09:07:09;101345.84;;;15.70;100.00
54600;BME280;40500;51.084;16.958;2023-05-27T09:09:37;101345.29;;;15.71;100.00
54600;BME280;40500;51.084;16.958;2023-05-27T09:12:06;101338.71;;;15.74;100.00
54600;BME280;40500;51.084;16.958;2023-05-27T09:14:37;101340.27;;;15.75;100.00
54600;BME280;40500;51.084;16.958;2023-05-27T09:17:08;101341.03;;;15.81;100.00
54600;BME280;40500;51.084;16.958;2023-05-27T09:19:36;101338.02;;;15.89;100.00
54600;BME280;40500;51.084;16.958;2023-05-27T09:22:04;101336.71;;;15.93;100.00
54600;BME280;40500;51.084;16.958;2023-05-27T09:24:33;101336.14;;;15.94;100.00
54600;BME280;40500;51.084;16.958;2023-05-27T09:27:01;101335.35;;;15.98;100.00
54600;BME280;40500;51.084;16.958;2023-05-27T09:29:28;101333.80;;;16.03;100.00
54600;BME280;40500;51.084;16.958;2023-05-27T09:31:56;101331.64;;;16.05;100.00
54600;BME280;40500;51.084;16.958;2023-05-27T09:34:24;101329.28;;;16.08;100.00
54600;BME280;40500;51.084;16.958;2023-05-27T09:36:56;101335.77;;;16.10;100.00
54600;BME280;40500;51.084;16.958;2023-05-27T09:39:25;101332.83;;;16.15;100.00
54600;BME280;40500;51.084;16.958;2023-05-27T09:41:54;101326.20;;;16.18;100.00
54600;BME280;40500;51.084;16.958;2023-05-27T09:44:27;101326.69;;;16.27;100.00
54600;BME280;40500;51.084;16.958;2023-05-27T09:46:56;101319.98;;;16.34;100.00
54600;BME280;40500;51.084;16.958;2023-05-27T09:49:26;101320.02;;;16.39;100.00
54600;BME280;40500;51.084;16.958;2023-05-27T09:51:56;101320.82;;;16.43;100.00
54600;BME280;40500;51.084;16.958;2023-05-27T09:54:24;101318.20;;;16.48;100.00
54600;BME280;40500;51.084;16.958;2023-05-27T09:56:53;101317.59;;;16.51;100.00
54600;BME280;40500;51.084;16.958;2023-05-27T09:59:22;101315.92;;;16.54;100.00
54600;BME280;40500;51.084;16.958;2023-05-27T10:01:51;101320.11;;;16.57;100.00
54600;BME280;40500;51.084;16.958;2023-05-27T10:04:21;101322.00;;;16.59;100.00
54600;BME280;40500;51.084;16.958;2023-05-27T10:06:49;101312.73;;;16.61;100.00
54600;BME280;40500;51.084;16.958;2023-05-27T10:09:17;101314.46;;;16.70;100.00
54600;BME280;40500;51.084;16.958;2023-05-27T10:11:48;101312.16;;;16.76;100.00
54600;BME280;40500;51.084;16.958;2023-05-27T10:14:16;101308.86;;;16.81;100.00
54600;BME280;40500;51.084;16.958;2023-05-27T10:16:52;101308.77;;;16.85;100.00
54600;BME280;40500;51.084;16.958;2023-05-27T10:19:20;101308.20;;;16.93;100.00
54600;BME280;40500;51.084;16.958;2023-05-27T10:21:48;101301.34;;;16.98;100.00
54600;BME280;40500;51.084;16.958;2023-05-27T10:24:15;101303.96;;;17.06;100.00
54600;BME280;40500;51.084;16.958;2023-05-27T10:26:45;101294.84;;;17.09;100.00
54600;BME280;40500;51.084;16.958;2023-05-27T10:29:15;101293.93;;;17.15;100.00
54600;BME280;40500;51.084;16.958;2023-05-27T10:31:48;101289.89;;;17.21;100.00
54600;BME280;40500;51.084;16.958;2023-05-27T10:34:19;101290.02;;;17.22;100.00
54600;BME280;40500;51.084;16.958;2023-05-27T10:36:58;101285.13;;;17.26;100.00
54600;BME280;40500;51.084;16.958;2023-05-27T10:39:26;101284.00;;;17.28;100.00
54600;BME280;40500;51.084;16.958;2023-05-27T10:41:57;101289.99;;;17.29;100.00
54600;BME280;40500;51.084;16.958;2023-05-27T10:44:29;101281.52;;;17.34;100.00
54600;BME280;40500;51.084;16.958;2023-05-27T10:47:01;101279.58;;;17.41;100.00
54600;BME280;40500;51.084;16.958;2023-05-27T10:49:32;101280.80;;;17.53;100.00
54600;BME280;40500;51.084;16.958;2023-05-27T10:52:07;101277.93;;;17.59;100.00
54600;BME280;40500;51.084;16.958;2023-05-27T10:54:38;101273.83;;;17.66;100.00
54600;BME280;40500;51.084;16.958;2023-05-27T10:57:06;101272.02;;;17.72;100.00
54600;BME280;40500;51.084;16.958;2023-05-27T10:59:40;101274.63;;;17.80;100.00
54600;BME280;40500;51.084;16.958;2023-05-27T11:02:11;101274.71;;;17.83;99.87
54600;BME280;40500;51.084;16.958;2023-05-27T11:04:39;101270.83;;;17.83;97.92
54600;BME280;40500;51.084;16.958;2023-05-27T11:07:07;101271.58;;;17.93;99.96
54600;BME280;40500;51.084;16.958;2023-05-27T11:09:43;101267.89;;;18.03;100.00
54600;BME280;40500;51.084;16.958;2023-05-27T11:12:14;101272.45;;;18.10;100.00
54600;BME280;40500;51.084;16.958;2023-05-27T11:14:43;101271.36;;;18.16;100.00
54600;BME280;40500;51.084;16.958;2023-05-27T11:17:12;101267.48;;;18.21;100.00
54600;BME280;40500;51.084;16.958;2023-05-27T11:19:42;101258.11;;;18.30;99.98
54600;BME280;40500;51.084;16.958;2023-05-27T11:22:12;101256.77;;;18.48;100.00
54600;BME280;40500;51.084;16.958;2023-05-27T11:24:40;101258.48;;;18.61;100.00
54600;BME280;40500;51.084;16.958;2023-05-27T11:27:12;101247.73;;;18.68;100.00
54600;BME280;40500;51.084;16.958;2023-05-27T11:29:50;101251.79;;;18.79;99.25
54600;BME280;40500;51.084;16.958;2023-05-27T11:32:19;101254.71;;;18.87;97.30
54600;BME280;40500;51.084;16.958;2023-05-27T11:34:48;101254.95;;;19.00;99.08
54600;BME280;40500;51.084;16.958;2023-05-27T11:37:18;101253.45;;;19.06;95.50
54600;BME280;40500;51.084;16.958;2023-05-27T11:39:52;101253.44;;;19.07;93.12
54600;BME280;40500;51.084;16.958;2023-05-27T11:42:23;101245.02;;;19.18;94.79
54600;BME280;40500;51.084;16.958;2023-05-27T11:44:53;101244.77;;;19.34;94.61
54600;BME280;40500;51.084;16.958;2023-05-27T11:47:22;101241.96;;;19.47;89.42
54600;BME280;40500;51.084;16.958;2023-05-27T11:49:53;101236.42;;;19.52;88.91
54600;BME280;40500;51.084;16.958;2023-05-27T11:52:26;101237.80;;;19.49;86.76
54600;BME280;40500;51.084;16.958;2023-05-27T11:54:55;101236.85;;;19.46;85.75
54600;BME280;40500;51.084;16.958;2023-05-27T11:57:26;101231.73;;;19.40;83.07
54600;BME280;40500;51.084;16.958;2023-05-27T11:59:54;101226.92;;;19.36;80.84
54600;BME280;40500;51.084;16.958;2023-05-27T12:02:24;101225.45;;;19.37;82.65
54600;BME280;40500;51.084;16.958;2023-05-27T12:04:56;101226.60;;;19.58;82.90
54600;BME280;40500;51.084;16.958;2023-05-27T12:07:24;101217.93;;;19.75;82.33
54600;BME280;40500;51.084;16.958;2023-05-27T12:09:52;101224.02;;;19.91;81.98
54600;BME280;40500;51.084;16.958;2023-05-27T12:12:20;101220.26;;;20.13;82.14
54600;BME280;40500;51.084;16.958;2023-05-27T12:14:48;101217.43;;;20.29;79.97
54600;BME280;40500;51.084;16.958;2023-05-27T12:17:16;101212.02;;;20.39;79.36
54600;BME280;40500;51.084;16.958;2023-05-27T12:19:44;101207.55;;;20.56;78.01
54600;BME280;40500;51.084;16.958;2023-05-27T12:22:11;101208.20;;;20.81;79.56
54600;BME280;40500;51.084;16.958;2023-05-27T12:24:39;101211.34;;;20.83;76.95
54600;BME280;40500;51.084;16.958;2023-05-27T12:27:07;101207.54;;;20.88;77.58
54600;BME280;40500;51.084;16.958;2023-05-27T12:29:35;101201.69;;;20.91;75.25
54600;BME280;40500;51.084;16.958;2023-05-27T12:32:04;101205.66;;;21.02;75.18
54600;BME280;40500;51.084;16.958;2023-05-27T12:34:32;101207.13;;;21.16;74.82
54600;BME280;40500;51.084;16.958;2023-05-27T12:37:00;101206.98;;;21.30;74.87
54600;BME280;40500;51.084;16.958;2023-05-27T12:39:27;101203.41;;;21.38;73.53
54600;BME280;40500;51.084;16.958;2023-05-27T12:41:55;101201.60;;;21.46;74.03
54600;BME280;40500;51.084;16.958;2023-05-27T12:44:23;101199.63;;;21.58;73.32
54600;BME280;40500;51.084;16.958;2023-05-27T12:46:50;101189.85;;;21.57;71.00
54600;BME280;40500;51.084;16.958;2023-05-27T12:49:18;101190.29;;;21.59;71.75
54600;BME280;40500;51.084;16.958;2023-05-27T12:51:46;101187.63;;;21.63;71.46
54600;BME280;40500;51.084;16.958;2023-05-27T12:54:14;101184.85;;;21.79;71.28
54600;BME280;40500;51.084;16.958;2023-05-27T12:56:42;101184.43;;;21.94;71.49
54600;BME280;40500;51.084;16.958;2023-05-27T12:59:10;101186.85;;;22.10;70.57
54600;BME280;40500;51.084;16.958;2023-05-27T13:01:38;101182.36;;;22.32;70.77
54600;BME280;40500;51.084;16.958;2023-05-27T13:04:05;101179.43;;;22.53;71.41
54600;BME280;40500;51.084;16.958;2023-05-27T13:06:34;101181.38;;;22.76;71.12
54600;BME280;40500;51.084;16.958;2023-05-27T13:09:02;101175.81;;;22.93;70.66
54600;BME280;40500;51.084;16.958;2023-05-27T13:11:34;101168.48;;;22.94;68.56
54600;BME280;40500;51.084;16.958;2023-05-27T13:14:03;101171.23;;;23.03;70.02
54600;BME280;40500;51.084;16.958;2023-05-27T13:16:31;101167.84;;;23.15;68.55
54600;BME280;40500;51.084;16.958;2023-05-27T13:18:59;101164.73;;;23.26;68.74
54600;BME280;40500;51.084;16.958;2023-05-27T13:21:27;101163.20;;;23.41;69.02
54600;BME280;40500;51.084;16.958;2023-05-27T13:24:06;101160.59;;;23.45;66.84
54600;BME280;40500;51.084;16.958;2023-05-27T13:26:34;101153.00;;;23.56;67.36
54600;BME280;40500;51.084;16.958;2023-05-27T13:29:03;101146.46;;;23.79;66.26
54600;BME280;40500;51.084;16.958;2023-05-27T13:31:39;101140.11;;;23.87;66.64
54600;BME280;40500;51.084;16.958;2023-05-27T13:37:07;101134.05;;;24.01;65.90
54600;BME280;40500;51.084;16.958;2023-05-27T13:39:48;101134.05;;;23.84;63.72
54600;BME280;40500;51.084;16.958;2023-05-27T13:42:15;101132.52;;;23.83;62.23
54600;BME280;40500;51.084;16.958;2023-05-27T13:44:44;101133.70;;;23.78;64.38
54600;BME280;40500;51.084;16.958;2023-05-27T13:47:37;101136.30;;;23.85;63.95